»·PEaware :: N716TH KSNA-KCRQ

N716TH :: KSNA-KCRQ

FLIGHT INFORMATION

Flight Status: Arrived
Operator: Privately registered:
United States
More flights under this callsign
Pilot: Danny R. (17997)
Aircraft: CESSNA 172 SKYHAWK
(C172)
More flights by this aircraft type
Origin: KSNA John Wayne-Orange Co
United States
Destination: KCRQ McClellan-Palomar
United States
More flights between these airports :: More routes between these airports
Route: +V23 OCN
File this flight plan on PilotEdge
Remarks:
Altitude:
(Current/Filed)
5,000ft
Speed:
(Current/Filed)
100kts
Departed: 27-Mar-18 10:38 AM
Arrived: 27-Mar-18 11:26 AM
Distance/Time
Traveled:
44nm/0:48
Distance/Time
To Go:
Arrived

Flight Plot

Page will automatically refresh every two minutes.


Map Options




Map Legend


Flown Route
Filed Route
Departure Airport
Arrival Airport
Navaid (VOR, NDB)
Fix

Horizontal Profiles

Position Reports

Time Latitude Longitude Heading Altitude Ground
Speed
27-Mar-18 10:18 33.671836 -117.867146 212 60ft 0kts
27-Mar-18 10:19 33.671836 -117.867146 212 60ft 0kts
27-Mar-18 10:20 33.671836 -117.867146 212 60ft 0kts
27-Mar-18 10:21 33.671836 -117.867146 212 60ft 0kts
27-Mar-18 10:22 33.671836 -117.867146 212 60ft 0kts
27-Mar-18 10:23 33.671836 -117.867146 212 60ft 0kts
27-Mar-18 10:24 33.671836 -117.867146 212 60ft 0kts
27-Mar-18 10:25 33.671836 -117.867146 212 60ft 0kts
27-Mar-18 10:26 33.671836 -117.867146 212 60ft 0kts
27-Mar-18 10:27 33.671836 -117.867146 212 60ft 0kts
27-Mar-18 10:28 33.671836 -117.867146 212 60ft 0kts
27-Mar-18 10:29 33.671836 -117.867146 212 60ft 0kts
27-Mar-18 10:30 33.671836 -117.867146 212 60ft 0kts
27-Mar-18 10:31 33.671836 -117.867146 212 60ft 0kts
27-Mar-18 10:32 33.672035 -117.868012 306 60ft 6kts
27-Mar-18 10:33 33.673819 -117.867215 352 60ft 10kts
27-Mar-18 10:34 33.676648 -117.865500 24 60ft 13kts
27-Mar-18 10:35 33.679863 -117.863522 352 60ft 7kts
27-Mar-18 10:36 33.679996 -117.863659 302 60ft 0kts
27-Mar-18 10:37 33.672917 -117.868662 207 191ft 81kts
27-Mar-18 10:38 33.652223 -117.878322 185 986ft 84kts
27-Mar-18 10:39 33.629105 -117.882193 188 1751ft 84kts
27-Mar-18 10:40 33.608154 -117.867755 133 2319ft 100kts
27-Mar-18 10:41 33.593924 -117.834572 110 2323ft 117kts
27-Mar-18 10:42 33.581094 -117.799944 109 2318ft 110kts
27-Mar-18 10:43 33.562948 -117.771124 135 2314ft 108kts
27-Mar-18 10:44 33.539516 -117.749396 140 2313ft 105kts
27-Mar-18 10:45 33.515937 -117.728724 140 2314ft 104kts
27-Mar-18 10:46 33.492466 -117.708278 140 2313ft 104kts
27-Mar-18 10:47 33.470909 -117.689628 135 2992ft 87kts
27-Mar-18 10:48 33.454215 -117.673245 131 3802ft 77kts
27-Mar-18 10:49 33.438972 -117.655410 128 4524ft 76kts
27-Mar-18 10:50 33.423062 -117.635403 127 5032ft 98kts
27-Mar-18 10:51 33.404438 -117.609868 128 5042ft 105kts
27-Mar-18 10:52 33.383946 -117.584776 136 5044ft 106kts
27-Mar-18 10:53 33.363071 -117.559664 136 5042ft 106kts
27-Mar-18 10:54 33.342348 -117.534784 138 5039ft 105kts
27-Mar-18 10:55 33.321592 -117.510786 138 5038ft 101kts
27-Mar-18 10:56 33.301802 -117.487724 138 5037ft 98kts
27-Mar-18 10:57 33.282204 -117.464883 138 5037ft 98kts
27-Mar-18 10:58 33.262709 -117.442164 138 5036ft 98kts
27-Mar-18 10:59 33.243146 -117.419425 138 5034ft 98kts
27-Mar-18 11:00 33.240132 -117.388590 81 5035ft 101kts
27-Mar-18 11:01 33.244588 -117.355252 81 5014ft 102kts
27-Mar-18 11:02 33.249066 -117.322892 81 5043ft 98kts
27-Mar-18 11:03 33.253576 -117.290418 81 5042ft 99kts
27-Mar-18 11:04 33.258103 -117.257821 81 5041ft 99kts
27-Mar-18 11:05 33.262616 -117.225339 81 5039ft 99kts
27-Mar-18 11:06 33.267200 -117.192766 81 5036ft 101kts
27-Mar-18 11:07 33.272383 -117.159103 81 5037ft 103kts
27-Mar-18 11:08 33.277426 -117.125256 92 5050ft 102kts
27-Mar-18 11:09 33.266205 -117.094792 121 4998ft 102kts
27-Mar-18 11:10 33.253810 -117.064794 121 4986ft 92kts
27-Mar-18 11:11 33.240756 -117.034386 136 4221ft 107kts
27-Mar-18 11:12 33.216752 -117.014156 152 3521ft 101kts
27-Mar-18 11:13 33.194262 -116.998477 192 3485ft 88kts
27-Mar-18 11:14 33.177636 -117.017516 231 3492ft 84kts
27-Mar-18 11:15 33.166307 -117.041083 259 3476ft 83kts
27-Mar-18 11:16 33.162277 -117.068198 258 3462ft 83kts
27-Mar-18 11:17 33.158144 -117.095258 269 3418ft 83kts
27-Mar-18 11:18 33.153491 -117.122320 257 3086ft 84kts
27-Mar-18 11:19 33.149469 -117.149527 265 2458ft 83kts
27-Mar-18 11:20 33.145110 -117.173080 262 2130ft 72kts
27-Mar-18 11:21 33.141785 -117.195003 262 1710ft 62kts
27-Mar-18 11:22 33.139350 -117.211397 261 1426ft 71kts
27-Mar-18 11:23 33.134821 -117.238823 262 973ft 73kts
27-Mar-18 11:24 33.130970 -117.262665 264 541ft 68kts
27-Mar-18 11:25 33.128599 -117.277840 259 335ft 16kts
27-Mar-18 11:26 33.127552 -117.279940 233 335ft 0kts
27-Mar-18 11:27 33.127318 -117.280771 262 335ft 13kts
27-Mar-18 11:28 33.126819 -117.280795 86 335ft 10kts
27-Mar-18 11:29 33.127205 -117.279408 80 335ft 0kts
27-Mar-18 11:30 33.127205 -117.279408 80 335ft 0kts

Navigation Log

Ident Type
1. KSNA Airport
2. OCN Navaid
3. KCRQ Airport